Time;durP1;ratioP1;P1;durP2;ratioP2;P2;SDS_P1;SDS_P2;PMS_P1;PMS_P2;Temp;Humidity;BMP_temperature;BMP_pressure;BME280_temperature;BME280_humidity;BME280_pressure;Samples;Min_cycle;Max_cycle;Signal;HPM_P1;HPM_P2
2021/10/28 00:14:04;;;;;;;10.67;9.67;;;15.10;99.90;;;;;;5092668;28;20463;-68
2021/10/28 00:16:34;;;;;;;9.27;8.27;;;15.00;99.90;;;;;;5092612;28;20489;-68
2021/10/28 00:19:02;;;;;;;7.87;7.10;;;15.10;99.90;;;;;;5092109;28;20457;-68
2021/10/28 00:21:30;;;;;;;8.17;7.37;;;15.00;99.90;;;;;;5092709;28;20492;-68
2021/10/28 00:24:00;;;;;;;7.83;6.83;;;15.00;99.90;;;;;;5078432;28;20834;-68
2021/10/28 00:26:28;;;;;;;7.87;6.67;;;14.90;99.90;;;;;;5092742;28;20461;-68
2021/10/28 00:28:59;;;;;;;12.17;10.13;;;14.90;99.90;;;;;;5092096;28;20536;-68
2021/10/28 00:31:27;;;;;;;7.80;6.83;;;14.90;99.90;;;;;;5092652;28;20465;-68
2021/10/28 00:33:56;;;;;;;7.90;7.10;;;14.90;99.90;;;;;;5092122;28;20468;-68
2021/10/28 00:36:24;;;;;;;10.73;7.33;;;14.80;99.90;;;;;;5092713;28;20849;-68
2021/10/28 00:38:52;;;;;;;12.10;10.10;;;14.70;99.90;;;;;;5079802;28;20560;-68
2021/10/28 00:41:20;;;;;;;5.33;4.90;;;14.70;99.90;;;;;;5092320;28;20461;-68
2021/10/28 00:43:49;;;;;;;9.40;8.50;;;14.60;99.90;;;;;;5092128;28;20548;-68
2021/10/28 00:46:17;;;;;;;16.53;14.03;;;14.60;99.90;;;;;;5091887;28;20476;-68
2021/10/28 00:48:46;;;;;;;10.23;8.33;;;14.60;99.90;;;;;;5091979;28;20494;-68
2021/10/28 00:51:14;;;;;;;7.20;6.53;;;14.60;99.90;;;;;;5092342;28;20469;-68
2021/10/28 00:53:42;;;;;;;8.20;7.40;;;14.60;99.90;;;;;;5091550;28;20476;-68
2021/10/28 00:56:09;;;;;;;6.37;5.87;;;14.60;99.90;;;;;;5092297;28;20474;-68
2021/10/28 00:58:36;;;;;;;6.60;6.00;;;14.50;99.90;;;;;;5092064;28;20461;-68
2021/10/28 01:01:06;;;;;;;14.32;10.82;;;14.50;99.90;;;;;;5091632;28;20468;-67
2021/10/28 01:03:34;;;;;;;10.57;9.13;;;14.50;99.90;;;;;;5092049;28;20223;-68
2021/10/28 01:06:04;;;;;;;7.97;7.23;;;14.50;99.90;;;;;;5091794;28;20526;-67
2021/10/28 01:08:32;;;;;;;7.87;7.17;;;14.50;99.90;;;;;;5091854;28;20489;-68
2021/10/28 01:11:00;;;;;;;6.57;5.97;;;14.40;99.90;;;;;;5092670;28;20473;-67
2021/10/28 01:13:27;;;;;;;8.87;8.07;;;14.40;99.90;;;;;;5096073;28;20480;-68
2021/10/28 01:15:55;;;;;;;7.37;6.67;;;14.40;99.90;;;;;;5095373;28;20496;-68
2021/10/28 01:18:24;;;;;;;7.93;7.22;;;14.40;99.90;;;;;;5095855;28;20989;-68
2021/10/28 01:20:55;;;;;;;6.50;5.90;;;14.40;99.90;;;;;;5094421;28;20315;-68
2021/10/28 01:23:23;;;;;;;5.73;5.23;;;14.30;99.90;;;;;;5086694;28;20465;-68
2021/10/28 01:25:53;;;;;;;6.23;5.63;;;14.30;99.90;;;;;;5092717;28;20511;-67
2021/10/28 01:28:21;;;;;;;13.95;10.05;;;14.20;99.90;;;;;;5083233;28;20506;-67
2021/10/28 01:30:49;;;;;;;8.93;7.38;;;14.10;99.90;;;;;;5095191;28;20603;-67
2021/10/28 01:33:16;;;;;;;10.60;9.70;;;14.10;99.90;;;;;;5095604;28;20231;-68
2021/10/28 01:35:43;;;;;;;11.20;8.00;;;14.10;99.90;;;;;;5095479;28;20227;-67
2021/10/28 01:38:13;;;;;;;8.82;8.00;;;14.00;99.90;;;;;;5095266;28;21320;-67
2021/10/28 01:40:40;;;;;;;9.43;8.47;;;14.00;99.90;;;;;;5095319;28;20227;-68
2021/10/28 01:43:08;;;;;;;10.40;9.33;;;14.00;99.90;;;;;;5094903;28;20927;-68
2021/10/28 01:45:36;;;;;;;9.10;7.80;;;14.00;99.90;;;;;;5095181;28;20989;-68
2021/10/28 01:48:03;;;;;;;9.38;8.43;;;14.00;99.90;;;;;;5094885;28;20815;-68
2021/10/28 01:50:31;;;;;;;8.98;7.93;;;14.00;99.90;;;;;;5095324;28;20235;-67
2021/10/28 01:52:59;;;;;;;9.60;8.60;;;13.90;99.90;;;;;;5088951;28;20619;-68
2021/10/28 01:55:30;;;;;;;7.03;6.18;;;13.90;99.90;;;;;;5093540;28;20219;-67
2021/10/28 01:57:57;;;;;;;9.47;8.53;;;13.90;99.90;;;;;;5094769;28;20223;-68
2021/10/28 02:00:24;;;;;;;11.57;10.37;;;13.80;99.90;;;;;;5094799;28;20473;-68
2021/10/28 02:02:52;;;;;;;19.25;16.38;;;13.80;99.90;;;;;;5094522;28;20462;-67
2021/10/28 02:05:21;;;;;;;8.05;7.30;;;13.80;99.90;;;;;;5094954;28;20231;-67
2021/10/28 02:07:48;;;;;;;7.28;6.68;;;13.80;99.90;;;;;;5094729;28;20673;-68
2021/10/28 02:10:17;;;;;;;14.10;12.68;;;13.80;99.90;;;;;;5091969;28;20239;-68
2021/10/28 02:12:47;;;;;;;14.15;12.73;;;13.80;99.90;;;;;;5094884;28;20281;-68
2021/10/28 02:15:15;;;;;;;11.02;9.98;;;13.80;99.90;;;;;;5092222;28;20659;-66
2021/10/28 02:17:43;;;;;;;9.85;8.95;;;13.70;99.90;;;;;;5094605;28;20234;-68
2021/10/28 02:20:13;;;;;;;8.70;7.90;;;13.70;99.90;;;;;;5094441;28;20585;-67
2021/10/28 02:22:41;;;;;;;10.82;9.60;;;13.60;99.90;;;;;;5093790;28;20234;-67
2021/10/28 02:25:10;;;;;;;9.25;8.35;;;13.60;99.90;;;;;;5094214;28;20227;-68
2021/10/28 02:27:37;;;;;;;15.02;12.10;;;13.60;99.90;;;;;;5094651;28;20250;-68
2021/10/28 02:30:08;;;;;;;9.70;8.90;;;13.60;99.90;;;;;;5094052;28;20553;-67
2021/10/28 02:32:36;;;;;;;8.90;7.53;;;13.60;99.90;;;;;;5094404;28;20715;-68
2021/10/28 02:35:04;;;;;;;13.48;12.18;;;13.60;99.90;;;;;;5094202;28;20247;-68
2021/10/28 02:37:32;;;;;;;8.73;7.95;;;13.50;99.90;;;;;;5094346;28;20262;-69
2021/10/28 02:39:58;;;;;;;11.75;10.35;;;13.50;99.90;;;;;;5083210;28;20228;-68
2021/10/28 02:42:25;;;;;;;12.15;11.07;;;13.60;99.90;;;;;;5094156;28;20219;-68
2021/10/28 02:44:52;;;;;;;13.27;12.00;;;13.50;99.90;;;;;;5093643;28;20227;-69
2021/10/28 02:47:21;;;;;;;13.90;12.50;;;13.50;99.90;;;;;;5094148;28;20549;-68
2021/10/28 02:49:48;;;;;;;21.58;17.65;;;13.50;99.90;;;;;;5094140;28;20223;-68
2021/10/28 02:52:15;;;;;;;15.02;13.65;;;13.50;99.90;;;;;;5093688;28;20223;-68
2021/10/28 02:54:41;;;;;;;21.00;18.73;;;13.50;99.90;;;;;;5086381;28;20565;-68
2021/10/28 02:57:09;;;;;;;30.60;22.20;;;13.50;99.90;;;;;;5093509;28;20219;-68
2021/10/28 02:59:36;;;;;;;19.00;15.73;;;13.50;99.90;;;;;;5093495;28;20314;-68
2021/10/28 03:02:04;;;;;;;14.52;13.23;;;13.40;99.90;;;;;;5093469;28;20219;-68
2021/10/28 03:04:32;;;;;;;12.82;11.73;;;13.40;99.90;;;;;;5093892;28;20223;-66
2021/10/28 03:07:00;;;;;;;13.65;12.35;;;13.40;99.90;;;;;;5093417;28;20230;-66
2021/10/28 03:09:28;;;;;;;20.05;18.17;;;13.40;99.90;;;;;;5093214;28;20284;-67
2021/10/28 03:11:57;;;;;;;11.38;10.38;;;13.30;99.90;;;;;;5086215;28;20223;-67
2021/10/28 03:14:31;;;;;;;14.38;12.98;;;13.30;99.90;;;;;;5092445;28;20323;-67
2021/10/28 03:17:01;;;;;;;11.80;10.63;;;13.30;99.90;;;;;;5091999;28;20615;-67
2021/10/28 03:19:35;;;;;;;11.80;10.80;;;13.20;99.90;;;;;;5093160;28;20230;-67
2021/10/28 03:27:32;;;;;;;12.27;11.13;;;13.10;99.90;;;;;;5093640;28;20352;-68
2021/10/28 03:30:00;;;;;;;11.77;10.77;;;13.10;99.90;;;;;;5093305;28;20234;-68
2021/10/28 03:32:28;;;;;;;11.50;10.50;;;13.00;99.90;;;;;;5093434;28;20326;-68
2021/10/28 03:34:56;;;;;;;14.55;13.15;;;13.00;99.90;;;;;;5092754;28;20233;-67
2021/10/28 03:37:29;;;;;;;12.38;11.15;;;13.00;99.90;;;;;;5093360;28;20224;-68
2021/10/28 03:40:29;;;;;;;12.50;11.18;;;12.90;99.90;;;;;;5092683;28;20243;-68
2021/10/28 04:19:02;;;;;;;11.50;10.30;;;12.60;99.90;;;;;;5081941;28;20222;-67
2021/10/28 04:21:52;;;;;;;11.70;10.57;;;12.60;99.90;;;;;;5092187;28;20228;-68
2021/10/28 04:29:49;;;;;;;37.45;26.08;;;12.60;99.90;;;;;;5078739;28;20234;-67
2021/10/28 04:32:16;;;;;;;17.63;15.20;;;12.60;99.90;;;;;;5091895;28;20222;-67
2021/10/28 04:34:44;;;;;;;14.07;12.68;;;12.60;99.90;;;;;;5092116;28;20234;-68
2021/10/28 04:37:11;;;;;;;17.75;15.55;;;12.60;99.90;;;;;;5082446;28;20262;-67
2021/10/28 04:39:38;;;;;;;12.80;11.50;;;12.70;99.90;;;;;;5092270;28;20685;-68
2021/10/28 04:42:07;;;;;;;15.30;13.70;;;12.70;99.90;;;;;;5092195;28;20569;-67
2021/10/28 04:44:35;;;;;;;12.35;11.02;;;12.70;99.90;;;;;;5090451;28;20231;-68
2021/10/28 04:47:02;;;;;;;14.00;12.80;;;12.70;99.90;;;;;;5095389;28;20219;-68
2021/10/28 04:49:28;;;;;;;14.18;12.27;;;12.70;99.90;;;;;;5095969;28;20223;-68
2021/10/28 04:51:55;;;;;;;11.85;10.77;;;12.70;99.90;;;;;;5096668;28;20223;-67
2021/10/28 04:54:22;;;;;;;12.05;11.02;;;12.70;99.90;;;;;;5095909;28;20470;-68
2021/10/28 04:56:49;;;;;;;11.27;10.27;;;12.60;99.90;;;;;;5090841;28;20231;-68
2021/10/28 04:59:18;;;;;;;15.48;13.15;;;12.60;99.90;;;;;;5088779;28;20228;-68
2021/10/28 05:01:45;;;;;;;11.82;10.52;;;12.60;99.90;;;;;;5095771;28;20238;-68
2021/10/28 05:04:12;;;;;;;14.90;13.20;;;12.60;99.90;;;;;;5082247;28;20227;-68
2021/10/28 05:06:39;;;;;;;14.45;12.95;;;12.60;99.90;;;;;;5096358;28;20247;-68
2021/10/28 05:09:08;;;;;;;14.32;12.93;;;12.60;99.90;;;;;;5095462;28;20720;-68
2021/10/28 05:11:35;;;;;;;39.85;29.17;;;12.60;99.90;;;;;;5096548;28;20340;-68
2021/10/28 05:14:02;;;;;;;12.15;11.00;;;12.60;99.90;;;;;;5095953;28;20227;-68
2021/10/28 05:16:30;;;;;;;11.75;10.55;;;12.50;99.90;;;;;;5082709;28;20235;-68
2021/10/28 05:18:57;;;;;;;13.10;11.77;;;12.60;99.90;;;;;;5095786;28;20669;-68
2021/10/28 05:21:24;;;;;;;14.55;11.50;;;12.50;99.90;;;;;;5095325;28;20632;-68
2021/10/28 05:23:51;;;;;;;12.98;11.65;;;12.50;99.90;;;;;;5095901;28;20227;-68
2021/10/28 05:26:18;;;;;;;12.65;11.35;;;12.50;99.90;;;;;;5095443;28;20223;-68
2021/10/28 05:28:45;;;;;;;12.15;10.95;;;12.50;99.90;;;;;;5095961;28;20219;-68
2021/10/28 05:31:12;;;;;;;12.05;10.95;;;12.50;99.90;;;;;;5094964;28;20223;-68
2021/10/28 05:33:40;;;;;;;13.57;11.90;;;12.50;99.90;;;;;;5095948;28;20565;-68
2021/10/28 05:36:07;;;;;;;11.50;10.30;;;12.50;99.90;;;;;;5095182;28;20227;-68
2021/10/28 05:38:34;;;;;;;13.45;11.32;;;12.40;99.90;;;;;;5095518;28;20227;-68
2021/10/28 05:41:01;;;;;;;13.15;11.85;;;12.50;99.90;;;;;;5095639;28;20234;-68
2021/10/28 05:43:28;;;;;;;13.25;11.90;;;12.50;99.90;;;;;;5094949;28;20226;-68
2021/10/28 05:45:55;;;;;;;13.57;11.68;;;12.40;99.90;;;;;;5092807;28;20232;-68
2021/10/28 05:48:22;;;;;;;13.25;10.77;;;12.40;99.90;;;;;;5095264;28;20603;-68
2021/10/28 05:50:51;;;;;;;10.77;9.75;;;12.40;99.90;;;;;;5095321;28;20223;-68
2021/10/28 05:53:18;;;;;;;12.82;11.73;;;12.40;99.90;;;;;;5094891;28;20571;-68
2021/10/28 05:55:45;;;;;;;13.32;11.93;;;12.40;99.90;;;;;;5095408;28;20233;-68
2021/10/28 05:58:12;;;;;;;12.40;10.95;;;12.40;99.90;;;;;;5093560;28;21380;-69
2021/10/28 06:00:39;;;;;;;13.23;11.90;;;12.40;99.90;;;;;;5094970;28;20250;-68
2021/10/28 06:03:06;;;;;;;11.00;9.90;;;12.40;99.90;;;;;;5095290;28;20223;-68
2021/10/28 06:05:33;;;;;;;11.82;10.63;;;12.30;99.90;;;;;;5094707;28;20238;-68
2021/10/28 06:08:02;;;;;;;13.27;11.98;;;12.30;99.90;;;;;;5094785;28;20219;-67
2021/10/28 06:10:29;;;;;;;12.90;11.57;;;12.30;99.90;;;;;;5094506;28;20701;-68
2021/10/28 06:13:00;;;;;;;12.90;11.63;;;12.30;99.90;;;;;;5094995;28;20227;-68
2021/10/28 06:15:30;;;;;;;12.02;10.82;;;12.30;99.90;;;;;;5090085;28;20581;-68
2021/10/28 06:17:59;;;;;;;12.93;11.55;;;12.30;99.90;;;;;;5086701;28;20250;-68
2021/10/28 06:20:27;;;;;;;12.02;10.90;;;12.30;99.90;;;;;;5094171;28;20234;-68
2021/10/28 06:22:55;;;;;;;16.02;14.00;;;12.30;99.90;;;;;;5084365;28;20713;-68
2021/10/28 06:25:23;;;;;;;14.85;13.23;;;12.30;99.90;;;;;;5091376;28;20615;-68
2021/10/28 06:27:50;;;;;;;15.05;13.48;;;12.20;99.90;;;;;;5094715;28;20223;-67
2021/10/28 06:30:18;;;;;;;15.98;14.23;;;12.20;99.90;;;;;;5094126;28;20235;-68
2021/10/28 06:32:48;;;;;;;12.88;11.30;;;12.20;99.90;;;;;;5094624;28;20696;-68
2021/10/28 06:35:15;;;;;;;14.63;12.95;;;12.20;99.90;;;;;;5093892;28;20219;-68
2021/10/28 06:37:46;;;;;;;13.85;12.45;;;12.30;99.90;;;;;;5094729;28;20223;-68
2021/10/28 06:40:14;;;;;;;13.80;12.48;;;12.20;99.90;;;;;;5093890;28;20251;-68
2021/10/28 06:42:43;;;;;;;12.18;10.98;;;12.20;99.90;;;;;;5094302;28;20223;-68
2021/10/28 06:45:10;;;;;;;15.65;12.35;;;12.20;99.90;;;;;;5092459;28;20215;-68
2021/10/28 06:47:37;;;;;;;15.00;12.82;;;12.20;99.90;;;;;;5094075;28;21206;-68
2021/10/28 06:50:10;;;;;;;13.65;12.15;;;12.10;99.90;;;;;;5094214;28;20231;-68
2021/10/28 06:52:49;;;;;;;13.50;12.18;;;12.10;99.90;;;;;;5093546;28;20299;-69
2021/10/28 06:55:27;;;;;;;16.48;11.77;;;12.10;99.90;;;;;;5093667;28;20227;-67
2021/10/28 07:02:15;;;;;;;12.10;10.93;;;12.20;99.90;;;;;;5093794;28;20215;-67
2021/10/28 07:03:33;;;;;;;16.02;12.75;;;12.10;99.90;;;;;;5094504;28;20218;-66
2021/10/28 07:06:03;;;;;;;12.70;11.45;;;12.10;99.90;;;;;;5093632;28;20215;-68
2021/10/28 07:08:32;;;;;;;13.15;11.75;;;12.10;99.90;;;;;;5081384;28;20228;-68
2021/10/28 07:11:00;;;;;;;22.15;15.48;;;12.20;99.90;;;;;;5092487;28;20231;-69
2021/10/28 07:13:31;;;;;;;13.25;11.90;;;12.20;99.90;;;;;;5093800;28;20223;-69
2021/10/28 07:16:00;;;;;;;14.63;13.00;;;12.20;99.90;;;;;;5093182;28;20680;-69
2021/10/28 07:18:38;;;;;;;15.10;13.50;;;12.20;99.90;;;;;;5093867;28;20301;-69
2021/10/28 07:21:26;;;;;;;15.13;13.63;;;12.20;99.90;;;;;;5081221;28;20223;-69
2021/10/28 07:35:15;;;;;;;15.73;13.40;;;12.40;99.90;;;;;;5093741;28;20276;-68
2021/10/28 08:00:10;;;;;;;13.65;12.20;;;12.50;99.90;;;;;;5066827;28;20247;-69
2021/10/28 08:05:40;;;;;;;14.75;13.25;;;12.60;99.90;;;;;;5069878;28;20219;-69
2021/10/28 08:13:52;;;;;;;12.95;11.75;;;12.70;99.90;;;;;;5092765;28;20226;-69
2021/10/28 08:19:05;;;;;;;11.73;10.63;;;12.80;99.90;;;;;;5091706;28;20227;-69
2021/10/28 08:21:38;;;;;;;14.18;12.77;;;12.80;99.90;;;;;;5091764;28;20292;-69
2021/10/28 08:24:14;;;;;;;14.35;12.90;;;12.90;99.90;;;;;;5086139;28;20252;-69
2021/10/28 08:29:31;;;;;;;13.38;11.50;;;13.00;99.90;;;;;;5092344;28;20230;-69
2021/10/28 08:31:58;;;;;;;14.90;13.30;;;13.10;99.90;;;;;;5092503;28;20254;-68
2021/10/28 08:34:29;;;;;;;13.32;12.05;;;13.10;99.90;;;;;;5092025;28;20231;-68
2021/10/28 08:36:57;;;;;;;13.63;12.13;;;13.10;99.90;;;;;;5092693;28;20556;-69
2021/10/28 08:39:24;;;;;;;13.93;12.43;;;13.10;99.90;;;;;;5092012;28;20276;-67
2021/10/28 08:41:52;;;;;;;14.55;13.07;;;13.20;99.90;;;;;;5092369;28;20230;-68
2021/10/28 08:44:23;;;;;;;13.48;12.13;;;13.20;99.90;;;;;;5084463;28;20302;-67
2021/10/28 08:46:52;;;;;;;18.13;12.45;;;13.30;99.90;;;;;;5092154;28;20311;-67
2021/10/28 08:49:23;;;;;;;13.27;12.07;;;13.30;99.90;;;;;;5091826;28;20223;-67
2021/10/28 08:52:02;;;;;;;14.10;12.60;;;13.40;99.90;;;;;;5079564;28;20216;-66
2021/10/28 08:54:50;;;;;;;14.00;12.57;;;13.50;99.90;;;;;;5091718;28;20223;-67
2021/10/28 08:57:39;;;;;;;14.25;12.73;;;13.40;99.90;;;;;;5092591;28;20306;-67
2021/10/28 09:25:35;;;;;;;15.20;13.60;;;13.90;99.90;;;;;;5092079;28;20280;-67
2021/10/28 09:28:06;;;;;;;14.17;12.70;;;14.00;99.90;;;;;;5078351;28;20465;-67
2021/10/28 09:30:47;;;;;;;11.13;10.13;;;14.00;99.90;;;;;;5086125;28;20466;-67
2021/10/28 09:33:22;;;;;;;19.37;17.37;;;14.00;99.90;;;;;;5094746;28;20489;-67
2021/10/28 09:36:14;;;;;;;16.30;14.63;;;14.10;99.90;;;;;;5095534;28;20464;-68
2021/10/28 09:44:43;;;;;;;13.17;11.87;;;14.30;99.90;;;;;;5087942;28;20468;-69
2021/10/28 09:47:35;;;;;;;12.97;11.77;;;14.40;99.90;;;;;;5085169;28;21017;-68
2021/10/28 09:50:17;;;;;;;11.77;10.57;;;14.50;99.90;;;;;;5081667;28;20472;-68
2021/10/28 09:53:05;;;;;;;11.33;10.20;;;14.50;99.90;;;;;;5095287;28;20468;-69
2021/10/28 09:58:27;;;;;;;12.13;10.93;;;14.50;99.90;;;;;;5080678;28;20222;-68
2021/10/28 10:00:56;;;;;;;15.13;11.07;;;14.60;99.90;;;;;;5090434;28;20963;-68
2021/10/28 10:03:25;;;;;;;11.60;10.50;;;14.60;99.90;;;;;;5094160;28;20477;-68
2021/10/28 10:06:00;;;;;;;10.77;9.60;;;14.70;99.90;;;;;;5095091;28;20477;-68
2021/10/28 10:08:27;;;;;;;17.47;14.20;;;14.80;99.90;;;;;;5094381;28;20499;-68
2021/10/28 10:10:54;;;;;;;12.20;11.10;;;14.80;99.90;;;;;;5094940;28;20531;-69
2021/10/28 10:13:23;;;;;;;13.10;11.57;;;14.90;99.90;;;;;;5094555;28;20924;-67
2021/10/28 10:15:53;;;;;;;12.27;11.17;;;14.90;99.90;;;;;;5092416;28;20850;-68
2021/10/28 10:18:23;;;;;;;11.70;10.50;;;14.90;99.90;;;;;;5094482;28;20511;-67
2021/10/28 10:20:53;;;;;;;9.37;8.47;;;15.00;99.90;;;;;;5094877;28;20951;-69
2021/10/28 10:26:45;;;;;;;13.77;11.13;;;15.10;99.90;;;;;;5081299;28;20461;-67
2021/10/28 10:29:45;;;;;;;11.23;10.03;;;15.20;99.90;;;;;;5094055;28;20518;-67
2021/10/28 11:32:53;;;;;;;11.50;10.40;;;15.90;99.90;;;;;;5083586;28;20543;-68
2021/10/28 12:17:25;;;;;;;10.67;9.57;;;16.50;99.90;;;;;;5083430;28;20457;-67
2021/10/28 12:45:07;;;;;;;10.30;8.33;;;16.70;99.90;;;;;;5091970;28;20460;-67
2021/10/28 12:56:07;;;;;;;7.23;6.20;;;16.80;99.60;;;;;;5091999;28;20476;-67
2021/10/28 13:49:13;;;;;;;6.00;5.40;;;17.00;97.80;;;;;;5133722;27;21070;-67
2021/10/28 13:51:59;;;;;;;6.17;5.00;;;17.10;98.00;;;;;;5140882;27;21263;-67
2021/10/28 13:54:45;;;;;;;10.23;8.40;;;17.10;98.10;;;;;;5134258;27;20483;-67
2021/10/28 14:00:34;;;;;;;7.53;6.83;;;17.10;98.70;;;;;;5146703;27;20525;-67
2021/10/28 14:26:21;;;;;;;6.33;5.63;;;17.00;97.50;;;;;;5119044;27;20567;-67
2021/10/28 15:29:22;;;;;;;15.30;12.77;;;16.60;99.00;;;;;;5107094;27;20555;-67
2021/10/28 15:32:23;;;;;;;14.13;12.60;;;16.60;99.20;;;;;;5103810;28;20457;-67
2021/10/28 15:37:40;;;;;;;12.33;11.03;;;16.50;99.50;;;;;;5081002;28;20946;-66
2021/10/28 15:40:16;;;;;;;13.40;11.50;;;16.50;99.70;;;;;;5091693;28;20467;-67
2021/10/28 16:23:58;;;;;;;13.40;10.77;;;15.70;99.90;;;;;;5067544;28;20800;-66
2021/10/28 16:26:31;;;;;;;11.63;10.43;;;15.70;99.90;;;;;;5093986;27;20461;-67
2021/10/28 16:28:57;;;;;;;10.83;9.60;;;15.60;99.90;;;;;;5093880;28;20470;-66
2021/10/28 16:31:25;;;;;;;12.50;10.30;;;15.60;99.90;;;;;;5092684;28;20772;-66
2021/10/28 16:33:52;;;;;;;10.93;10.03;;;15.60;99.90;;;;;;5090859;28;20465;-67
2021/10/28 16:36:24;;;;;;;10.90;9.80;;;15.60;99.90;;;;;;5093393;28;20472;-67
2021/10/28 16:38:52;;;;;;;12.50;11.30;;;15.60;99.90;;;;;;5093475;28;20462;-67
2021/10/28 16:41:19;;;;;;;11.43;9.60;;;15.60;99.90;;;;;;5092802;28;20481;-67
2021/10/28 16:43:46;;;;;;;12.50;11.27;;;15.60;99.90;;;;;;5084366;28;20468;-68
2021/10/28 16:46:13;;;;;;;11.37;10.30;;;15.60;99.90;;;;;;5092962;28;20944;-67
2021/10/28 16:48:41;;;;;;;12.63;11.37;;;15.60;99.90;;;;;;5092810;28;20830;-67
2021/10/28 16:51:08;;;;;;;12.97;11.63;;;15.50;99.90;;;;;;5093626;28;20493;-67
2021/10/28 16:53:37;;;;;;;14.27;12.23;;;15.50;99.90;;;;;;5092995;28;20472;-66
2021/10/28 16:56:04;;;;;;;11.67;10.50;;;15.50;99.90;;;;;;5093735;28;20830;-66
2021/10/28 16:58:31;;;;;;;13.10;11.90;;;15.50;99.90;;;;;;5091642;28;20816;-67
2021/10/28 17:00:58;;;;;;;15.07;11.70;;;15.60;99.90;;;;;;5093398;28;20465;-67
2021/10/28 17:03:25;;;;;;;12.73;11.47;;;15.60;99.90;;;;;;5093459;28;20779;-67
2021/10/28 17:05:52;;;;;;;13.50;11.20;;;15.60;99.90;;;;;;5088270;28;20461;-67
2021/10/28 17:08:19;;;;;;;11.10;10.00;;;15.60;99.90;;;;;;5093136;28;20934;-68
2021/10/28 17:10:48;;;;;;;12.27;11.00;;;15.60;99.90;;;;;;5090514;28;20477;-68
2021/10/28 17:13:16;;;;;;;12.37;11.20;;;15.60;99.90;;;;;;5093052;28;20960;-67
2021/10/28 17:15:43;;;;;;;10.37;9.47;;;15.70;99.90;;;;;;5093355;28;20560;-67
2021/10/28 17:18:10;;;;;;;11.33;10.30;;;15.70;99.90;;;;;;5089131;28;20824;-67
2021/10/28 17:20:37;;;;;;;11.97;10.90;;;15.70;99.90;;;;;;5093236;28;20488;-68
2021/10/28 17:23:05;;;;;;;12.00;10.70;;;15.60;99.90;;;;;;5092782;28;20462;-67
2021/10/28 17:25:37;;;;;;;11.57;10.37;;;15.70;99.90;;;;;;5085228;28;20919;-67
2021/10/28 17:28:06;;;;;;;12.87;11.60;;;15.60;99.90;;;;;;5093242;28;20546;-67
2021/10/28 17:30:33;;;;;;;13.53;11.90;;;15.60;99.90;;;;;;5092622;28;20465;-67
2021/10/28 17:33:00;;;;;;;12.13;10.30;;;15.60;99.90;;;;;;5085676;28;20465;-68
2021/10/28 17:35:27;;;;;;;12.87;11.30;;;15.60;99.90;;;;;;5092830;28;20514;-67
2021/10/28 17:37:54;;;;;;;15.03;13.63;;;15.60;99.90;;;;;;5092262;28;20522;-67
2021/10/28 17:40:24;;;;;;;14.93;13.67;;;15.50;99.90;;;;;;5092388;28;20780;-67
2021/10/28 17:42:53;;;;;;;17.00;15.53;;;15.60;99.90;;;;;;5092844;28;20461;-67
2021/10/28 17:45:25;;;;;;;15.17;13.77;;;15.60;99.90;;;;;;5092074;28;20453;-66
2021/10/28 17:47:53;;;;;;;13.13;11.93;;;15.60;99.90;;;;;;5092495;28;20958;-66
2021/10/28 17:50:19;;;;;;;12.20;11.10;;;15.60;99.90;;;;;;5092480;28;20489;-67
2021/10/28 17:52:46;;;;;;;12.03;10.73;;;15.60;99.90;;;;;;5092784;28;20461;-67
2021/10/28 17:55:15;;;;;;;12.33;10.67;;;15.50;99.90;;;;;;5091759;28;20584;-67
2021/10/28 17:57:46;;;;;;;19.73;16.83;;;15.50;99.90;;;;;;5092529;28;20485;-67
2021/10/28 18:00:14;;;;;;;22.37;20.37;;;15.50;99.90;;;;;;5089278;28;20489;-67
2021/10/28 18:02:42;;;;;;;16.90;15.40;;;15.40;99.90;;;;;;5091690;28;20469;-68
2021/10/28 18:05:10;;;;;;;17.33;15.60;;;15.40;99.90;;;;;;5092295;28;20480;-68
2021/10/28 18:07:38;;;;;;;16.67;13.60;;;15.40;99.90;;;;;;5092662;28;20457;-67
2021/10/28 18:10:06;;;;;;;20.00;15.57;;;15.40;99.90;;;;;;5092005;28;20556;-67
2021/10/28 18:12:35;;;;;;;16.57;14.87;;;15.30;99.90;;;;;;5091888;28;21179;-68
2021/10/28 18:15:02;;;;;;;20.87;17.97;;;15.30;99.90;;;;;;5092278;28;20531;-68
2021/10/28 18:17:29;;;;;;;23.73;21.63;;;15.20;99.90;;;;;;5091797;27;20469;-67
2021/10/28 18:19:58;;;;;;;19.63;16.87;;;15.20;99.90;;;;;;5092169;28;20469;-70
2021/10/28 18:22:25;;;;;;;23.70;19.53;;;15.20;99.90;;;;;;5091040;28;20465;-68
2021/10/28 18:24:52;;;;;;;20.50;18.40;;;15.10;99.90;;;;;;5091479;28;20934;-66
2021/10/28 18:27:19;;;;;;;18.43;16.67;;;15.10;99.90;;;;;;5091579;28;20473;-67
2021/10/28 18:29:46;;;;;;;15.20;13.57;;;15.10;99.90;;;;;;5091831;28;20473;-68
2021/10/28 18:32:13;;;;;;;16.20;13.57;;;15.10;99.90;;;;;;5085334;28;20458;-68
2021/10/28 18:34:42;;;;;;;17.40;14.90;;;15.10;99.90;;;;;;5091016;28;20465;-68
2021/10/28 18:37:11;;;;;;;16.27;13.90;;;15.10;99.90;;;;;;5086352;27;20458;-66
2021/10/28 18:39:40;;;;;;;16.10;14.60;;;15.10;99.90;;;;;;5089201;28;20470;-67
2021/10/28 18:42:07;;;;;;;14.80;13.40;;;15.10;99.90;;;;;;5081070;28;20501;-67
2021/10/28 18:44:34;;;;;;;15.17;13.60;;;15.10;99.90;;;;;;5082237;28;20477;-68
2021/10/28 18:47:02;;;;;;;16.63;15.10;;;15.10;99.90;;;;;;5090328;28;20458;-67
2021/10/28 18:49:29;;;;;;;14.93;13.63;;;15.10;99.90;;;;;;5091260;28;20890;-68
2021/10/28 18:51:56;;;;;;;12.97;11.67;;;15.10;99.90;;;;;;5090877;28;20955;-67
2021/10/28 18:54:24;;;;;;;13.23;11.87;;;15.10;99.80;;;;;;5091451;28;20469;-68
2021/10/28 18:56:51;;;;;;;13.40;12.10;;;15.10;99.60;;;;;;5077954;28;20457;-68
2021/10/28 18:59:19;;;;;;;13.20;11.13;;;15.10;99.60;;;;;;5086508;28;20573;-68
2021/10/28 19:01:48;;;;;;;15.80;12.80;;;15.00;99.70;;;;;;5092023;28;20461;-67
2021/10/28 19:04:15;;;;;;;12.90;11.60;;;15.00;99.70;;;;;;5091784;28;20564;-68
2021/10/28 19:06:42;;;;;;;12.90;11.60;;;15.00;99.80;;;;;;5091451;28;20461;-65
2021/10/28 19:09:09;;;;;;;13.30;11.70;;;14.90;99.80;;;;;;5091740;28;20515;-66
2021/10/28 19:11:40;;;;;;;12.00;10.90;;;14.90;99.70;;;;;;5093596;28;20465;-66
2021/10/28 19:14:07;;;;;;;12.77;11.30;;;14.90;99.50;;;;;;5095971;28;20970;-65
2021/10/28 19:16:34;;;;;;;11.53;10.43;;;14.90;99.50;;;;;;5091803;28;20469;-65
2021/10/28 19:19:03;;;;;;;12.60;10.50;;;14.90;99.50;;;;;;5095427;28;20469;-65
2021/10/28 19:21:31;;;;;;;11.03;9.93;;;14.90;99.60;;;;;;5095389;28;20556;-64
2021/10/28 19:23:58;;;;;;;10.47;9.43;;;14.90;99.60;;;;;;5087780;28;20800;-66
2021/10/28 19:26:25;;;;;;;10.47;9.47;;;14.90;99.50;;;;;;5094791;28;20461;-65
2021/10/28 19:28:53;;;;;;;10.37;9.43;;;14.90;99.40;;;;;;5095432;28;20950;-65
2021/10/28 19:31:22;;;;;;;12.60;10.80;;;14.90;99.40;;;;;;5095053;28;20468;-64
2021/10/28 19:33:51;;;;;;;10.83;9.70;;;14.90;99.30;;;;;;5083100;28;20545;-65
2021/10/28 19:36:27;;;;;;;12.00;10.53;;;14.90;99.30;;;;;;5094765;28;20480;-67
2021/10/28 19:39:14;;;;;;;11.60;10.50;;;14.80;99.30;;;;;;5094940;28;20551;-66
2021/10/28 19:42:00;;;;;;;11.53;10.30;;;14.80;99.30;;;;;;5094501;28;20461;-68
2021/10/28 19:47:14;;;;;;;12.03;10.83;;;14.90;99.20;;;;;;5087067;28;20610;-67
2021/10/28 19:49:43;;;;;;;12.17;10.83;;;14.80;99.10;;;;;;5094355;28;20465;-66
2021/10/28 19:52:13;;;;;;;10.27;9.37;;;14.80;99.10;;;;;;5094732;28;20800;-68
2021/10/28 19:54:41;;;;;;;11.37;9.90;;;14.80;99.10;;;;;;5094235;28;20471;-67
2021/10/28 19:57:14;;;;;;;11.83;9.53;;;14.80;99.00;;;;;;5095243;28;20473;-66
2021/10/28 19:59:48;;;;;;;11.63;10.53;;;14.80;98.90;;;;;;5094244;28;20530;-66
2021/10/28 20:02:22;;;;;;;11.53;10.27;;;14.80;98.80;;;;;;5094471;28;20517;-67
2021/10/28 20:05:07;;;;;;;11.87;10.77;;;14.70;98.60;;;;;;5094261;28;20449;-68
2021/10/28 20:07:54;;;;;;;12.53;10.90;;;14.70;98.60;;;;;;5104919;28;20536;-67
2021/10/28 20:13:25;;;;;;;10.97;9.67;;;14.70;98.50;;;;;;5068599;28;20465;-67
2021/10/28 20:21:22;;;;;;;10.30;9.30;;;14.60;98.40;;;;;;5078475;28;20603;-65
2021/10/28 20:23:49;;;;;;;11.73;10.50;;;14.60;98.50;;;;;;5088580;28;20472;-67
2021/10/28 20:26:16;;;;;;;11.80;9.03;;;14.50;98.30;;;;;;5094141;28;20466;-65
2021/10/28 20:28:44;;;;;;;11.20;9.87;;;14.50;98.40;;;;;;5094362;28;20457;-67
2021/10/28 20:31:13;;;;;;;10.33;9.10;;;14.50;98.30;;;;;;5093991;28;20458;-68
2021/10/28 20:33:45;;;;;;;9.63;8.60;;;14.40;98.20;;;;;;5090913;28;20532;-67
2021/10/28 20:38:53;;;;;;;11.50;9.00;;;14.40;98.30;;;;;;5093966;28;20465;-65
2021/10/28 20:41:20;;;;;;;15.77;11.07;;;14.40;98.40;;;;;;5093044;28;20454;-66
2021/10/28 20:43:47;;;;;;;10.50;9.40;;;14.30;98.40;;;;;;5087327;28;20484;-68